sensor_id;sensor_type;location;lat;lon;timestamp;P1;durP1;ratioP1;P2;durP2;ratioP2
73693;SDS011;61997;53.974;11.670;2023-03-20T00:02:20;45.28;;;24.40;;
73693;SDS011;61997;53.974;11.670;2023-03-20T00:04:46;43.17;;;23.75;;
73693;SDS011;61997;53.974;11.670;2023-03-20T00:07:11;40.40;;;23.05;;
73693;SDS011;61997;53.974;11.670;2023-03-20T00:09:37;43.70;;;23.85;;
73693;SDS011;61997;53.974;11.670;2023-03-20T00:12:03;41.80;;;23.58;;
73693;SDS011;61997;53.974;11.670;2023-03-20T00:14:29;42.63;;;23.30;;
73693;SDS011;61997;53.974;11.670;2023-03-20T00:16:56;38.95;;;22.85;;
73693;SDS011;61997;53.974;11.670;2023-03-20T00:19:23;41.08;;;22.60;;
73693;SDS011;61997;53.974;11.670;2023-03-20T00:21:55;42.47;;;21.67;;
73693;SDS011;61997;53.974;11.670;2023-03-20T00:24:20;40.13;;;22.40;;
73693;SDS011;61997;53.974;11.670;2023-03-20T00:26:47;40.50;;;22.17;;
73693;SDS011;61997;53.974;11.670;2023-03-20T00:29:19;39.15;;;21.30;;
73693;SDS011;61997;53.974;11.670;2023-03-20T00:31:47;38.08;;;21.25;;
73693;SDS011;61997;53.974;11.670;2023-03-20T00:34:13;40.05;;;21.48;;
73693;SDS011;61997;53.974;11.670;2023-03-20T00:36:40;41.10;;;22.33;;
73693;SDS011;61997;53.974;11.670;2023-03-20T00:39:05;37.85;;;21.40;;
73693;SDS011;61997;53.974;11.670;2023-03-20T00:47:16;36.47;;;20.35;;
73693;SDS011;61997;53.974;11.670;2023-03-20T00:49:43;38.67;;;20.73;;
73693;SDS011;61997;53.974;11.670;2023-03-20T00:52:09;38.08;;;20.85;;
73693;SDS011;61997;53.974;11.670;2023-03-20T00:54:36;37.63;;;20.55;;
73693;SDS011;61997;53.974;11.670;2023-03-20T00:57:12;37.95;;;20.08;;
73693;SDS011;61997;53.974;11.670;2023-03-20T00:59:41;36.53;;;18.92;;
73693;SDS011;61997;53.974;11.670;2023-03-20T01:02:24;34.83;;;18.55;;
73693;SDS011;61997;53.974;11.670;2023-03-20T01:04:50;32.20;;;18.73;;
73693;SDS011;61997;53.974;11.670;2023-03-20T01:07:16;36.55;;;19.13;;
73693;SDS011;61997;53.974;11.670;2023-03-20T01:09:42;35.25;;;18.83;;
73693;SDS011;61997;53.974;11.670;2023-03-20T01:12:09;32.72;;;17.42;;
73693;SDS011;61997;53.974;11.670;2023-03-20T01:14:35;32.05;;;18.38;;
73693;SDS011;61997;53.974;11.670;2023-03-20T01:17:01;32.15;;;18.88;;
73693;SDS011;61997;53.974;11.670;2023-03-20T01:19:26;34.10;;;19.52;;
73693;SDS011;61997;53.974;11.670;2023-03-20T01:21:51;34.03;;;18.58;;
73693;SDS011;61997;53.974;11.670;2023-03-20T01:24:17;30.27;;;17.35;;
73693;SDS011;61997;53.974;11.670;2023-03-20T01:26:42;29.20;;;17.30;;
73693;SDS011;61997;53.974;11.670;2023-03-20T01:29:19;30.35;;;16.65;;
73693;SDS011;61997;53.974;11.670;2023-03-20T01:31:45;28.73;;;17.30;;
73693;SDS011;61997;53.974;11.670;2023-03-20T01:34:11;29.08;;;16.95;;
73693;SDS011;61997;53.974;11.670;2023-03-20T01:36:36;29.67;;;17.75;;
73693;SDS011;61997;53.974;11.670;2023-03-20T01:39:02;27.98;;;17.02;;
73693;SDS011;61997;53.974;11.670;2023-03-20T01:41:28;29.40;;;16.85;;
73693;SDS011;61997;53.974;11.670;2023-03-20T01:43:53;27.95;;;16.35;;
73693;SDS011;61997;53.974;11.670;2023-03-20T01:46:26;31.70;;;17.08;;
73693;SDS011;61997;53.974;11.670;2023-03-20T01:48:58;25.95;;;14.80;;
73693;SDS011;61997;53.974;11.670;2023-03-20T01:51:44;29.05;;;15.65;;
73693;SDS011;61997;53.974;11.670;2023-03-20T01:59:23;23.42;;;14.75;;
73693;SDS011;61997;53.974;11.670;2023-03-20T02:01:53;28.67;;;14.52;;
73693;SDS011;61997;53.974;11.670;2023-03-20T02:04:19;24.88;;;14.80;;
73693;SDS011;61997;53.974;11.670;2023-03-20T02:06:51;26.10;;;14.23;;
73693;SDS011;61997;53.974;11.670;2023-03-20T02:09:16;24.88;;;14.23;;
73693;SDS011;61997;53.974;11.670;2023-03-20T02:11:42;28.65;;;14.57;;
73693;SDS011;61997;53.974;11.670;2023-03-20T02:14:09;23.25;;;13.63;;
73693;SDS011;61997;53.974;11.670;2023-03-20T02:16:35;24.98;;;13.57;;
73693;SDS011;61997;53.974;11.670;2023-03-20T02:19:00;25.45;;;13.88;;
73693;SDS011;61997;53.974;11.670;2023-03-20T02:35:50;25.88;;;12.88;;
73693;SDS011;61997;53.974;11.670;2023-03-20T02:46:51;20.63;;;12.27;;
73693;SDS011;61997;53.974;11.670;2023-03-20T02:58:18;23.52;;;12.20;;
73693;SDS011;61997;53.974;11.670;2023-03-20T03:00:27;16.42;;;10.30;;
73693;SDS011;61997;53.974;11.670;2023-03-20T03:03:03;20.52;;;12.43;;
73693;SDS011;61997;53.974;11.670;2023-03-20T03:05:34;18.10;;;10.82;;
73693;SDS011;61997;53.974;11.670;2023-03-20T03:08:02;19.13;;;10.95;;
73693;SDS011;61997;53.974;11.670;2023-03-20T03:10:29;16.90;;;9.93;;
73693;SDS011;61997;53.974;11.670;2023-03-20T03:12:58;19.42;;;10.38;;
73693;SDS011;61997;53.974;11.670;2023-03-20T03:15:26;17.35;;;10.23;;
73693;SDS011;61997;53.974;11.670;2023-03-20T03:17:54;15.80;;;9.85;;
73693;SDS011;61997;53.974;11.670;2023-03-20T03:20:23;21.33;;;11.68;;
73693;SDS011;61997;53.974;11.670;2023-03-20T03:22:52;17.48;;;11.13;;
73693;SDS011;61997;53.974;11.670;2023-03-20T03:25:17;17.73;;;9.38;;
73693;SDS011;61997;53.974;11.670;2023-03-20T03:27:46;17.20;;;9.85;;
73693;SDS011;61997;53.974;11.670;2023-03-20T03:30:17;18.27;;;9.45;;
73693;SDS011;61997;53.974;11.670;2023-03-20T03:32:57;16.38;;;9.65;;
73693;SDS011;61997;53.974;11.670;2023-03-20T03:35:33;16.33;;;9.38;;
73693;SDS011;61997;53.974;11.670;2023-03-20T03:38:15;16.67;;;10.38;;
73693;SDS011;61997;53.974;11.670;2023-03-20T03:41:16;17.77;;;9.73;;
73693;SDS011;61997;53.974;11.670;2023-03-20T03:43:45;15.30;;;9.13;;
73693;SDS011;61997;53.974;11.670;2023-03-20T03:49:03;14.35;;;8.52;;
73693;SDS011;61997;53.974;11.670;2023-03-20T03:51:30;16.30;;;9.10;;
73693;SDS011;61997;53.974;11.670;2023-03-20T03:53:58;14.95;;;8.63;;
73693;SDS011;61997;53.974;11.670;2023-03-20T03:56:26;18.05;;;9.13;;
73693;SDS011;61997;53.974;11.670;2023-03-20T03:58:54;14.68;;;8.90;;
73693;SDS011;61997;53.974;11.670;2023-03-20T04:01:23;14.02;;;8.70;;
73693;SDS011;61997;53.974;11.670;2023-03-20T04:03:51;13.82;;;8.45;;
73693;SDS011;61997;53.974;11.670;2023-03-20T04:06:19;15.95;;;7.95;;
73693;SDS011;61997;53.974;11.670;2023-03-20T04:08:45;15.07;;;7.75;;
73693;SDS011;61997;53.974;11.670;2023-03-20T04:11:17;15.10;;;8.07;;
73693;SDS011;61997;53.974;11.670;2023-03-20T04:13:48;12.52;;;7.95;;
73693;SDS011;61997;53.974;11.670;2023-03-20T04:16:15;13.07;;;7.57;;
73693;SDS011;61997;53.974;11.670;2023-03-20T04:18:41;14.40;;;8.13;;
73693;SDS011;61997;53.974;11.670;2023-03-20T04:21:07;12.50;;;7.15;;
73693;SDS011;61997;53.974;11.670;2023-03-20T04:23:33;13.30;;;7.25;;
73693;SDS011;61997;53.974;11.670;2023-03-20T04:25:58;13.52;;;7.38;;
73693;SDS011;61997;53.974;11.670;2023-03-20T04:28:23;11.77;;;6.93;;
73693;SDS011;61997;53.974;11.670;2023-03-20T04:30:52;13.27;;;7.10;;
73693;SDS011;61997;53.974;11.670;2023-03-20T04:33:18;14.25;;;6.70;;
73693;SDS011;61997;53.974;11.670;2023-03-20T04:35:44;11.25;;;6.60;;
73693;SDS011;61997;53.974;11.670;2023-03-20T04:38:09;12.48;;;7.32;;
73693;SDS011;61997;53.974;11.670;2023-03-20T04:40:35;12.57;;;6.75;;
73693;SDS011;61997;53.974;11.670;2023-03-20T04:43:00;12.63;;;7.50;;
73693;SDS011;61997;53.974;11.670;2023-03-20T04:45:25;10.00;;;5.97;;
73693;SDS011;61997;53.974;11.670;2023-03-20T04:47:51;12.77;;;6.72;;
73693;SDS011;61997;53.974;11.670;2023-03-20T04:50:16;13.00;;;6.80;;
73693;SDS011;61997;53.974;11.670;2023-03-20T04:52:41;11.93;;;6.75;;
73693;SDS011;61997;53.974;11.670;2023-03-20T04:55:07;13.88;;;6.70;;
73693;SDS011;61997;53.974;11.670;2023-03-20T04:57:32;8.75;;;6.05;;
73693;SDS011;61997;53.974;11.670;2023-03-20T04:59:58;9.77;;;6.30;;
73693;SDS011;61997;53.974;11.670;2023-03-20T05:02:23;12.00;;;7.32;;
73693;SDS011;61997;53.974;11.670;2023-03-20T05:04:49;11.15;;;5.63;;
73693;SDS011;61997;53.974;11.670;2023-03-20T05:07:14;10.80;;;6.03;;
73693;SDS011;61997;53.974;11.670;2023-03-20T05:09:40;10.32;;;6.15;;
73693;SDS011;61997;53.974;11.670;2023-03-20T05:12:05;9.85;;;6.03;;
73693;SDS011;61997;53.974;11.670;2023-03-20T05:14:31;8.75;;;5.40;;
73693;SDS011;61997;53.974;11.670;2023-03-20T05:16:56;9.23;;;4.97;;
73693;SDS011;61997;53.974;11.670;2023-03-20T05:19:22;11.40;;;6.60;;
73693;SDS011;61997;53.974;11.670;2023-03-20T05:21:47;9.32;;;5.28;;
73693;SDS011;61997;53.974;11.670;2023-03-20T05:24:12;11.25;;;6.07;;
73693;SDS011;61997;53.974;11.670;2023-03-20T05:26:38;9.40;;;5.43;;
73693;SDS011;61997;53.974;11.670;2023-03-20T05:29:03;8.73;;;4.93;;
73693;SDS011;61997;53.974;11.670;2023-03-20T05:31:28;8.50;;;5.22;;
73693;SDS011;61997;53.974;11.670;2023-03-20T05:33:54;10.80;;;4.97;;
73693;SDS011;61997;53.974;11.670;2023-03-20T05:36:19;8.95;;;5.50;;
73693;SDS011;61997;53.974;11.670;2023-03-20T05:38:45;8.82;;;5.15;;
73693;SDS011;61997;53.974;11.670;2023-03-20T05:41:10;8.70;;;5.32;;
73693;SDS011;61997;53.974;11.670;2023-03-20T05:43:35;10.45;;;5.35;;
73693;SDS011;61997;53.974;11.670;2023-03-20T05:46:01;8.50;;;4.97;;
73693;SDS011;61997;53.974;11.670;2023-03-20T05:48:26;9.70;;;5.50;;
73693;SDS011;61997;53.974;11.670;2023-03-20T05:50:51;8.98;;;5.05;;
73693;SDS011;61997;53.974;11.670;2023-03-20T05:53:17;8.82;;;4.80;;
73693;SDS011;61997;53.974;11.670;2023-03-20T05:55:42;9.70;;;5.13;;
73693;SDS011;61997;53.974;11.670;2023-03-20T05:58:09;7.93;;;4.43;;
73693;SDS011;61997;53.974;11.670;2023-03-20T06:00:35;7.93;;;4.88;;
73693;SDS011;61997;53.974;11.670;2023-03-20T06:03:01;8.02;;;4.47;;
73693;SDS011;61997;53.974;11.670;2023-03-20T06:05:26;6.75;;;4.10;;
73693;SDS011;61997;53.974;11.670;2023-03-20T06:07:51;6.65;;;3.95;;
73693;SDS011;61997;53.974;11.670;2023-03-20T06:10:17;6.03;;;4.28;;
73693;SDS011;61997;53.974;11.670;2023-03-20T06:12:44;7.75;;;4.35;;
73693;SDS011;61997;53.974;11.670;2023-03-20T06:15:10;6.90;;;3.63;;
73693;SDS011;61997;53.974;11.670;2023-03-20T06:17:35;7.22;;;4.28;;
73693;SDS011;61997;53.974;11.670;2023-03-20T06:20:01;8.82;;;4.28;;
73693;SDS011;61997;53.974;11.670;2023-03-20T06:22:27;8.75;;;4.35;;
73693;SDS011;61997;53.974;11.670;2023-03-20T06:24:52;7.15;;;3.80;;
73693;SDS011;61997;53.974;11.670;2023-03-20T06:27:17;7.82;;;4.10;;
73693;SDS011;61997;53.974;11.670;2023-03-20T06:29:43;6.85;;;4.30;;
73693;SDS011;61997;53.974;11.670;2023-03-20T06:32:08;7.35;;;3.90;;
73693;SDS011;61997;53.974;11.670;2023-03-20T06:34:36;5.55;;;3.22;;
73693;SDS011;61997;53.974;11.670;2023-03-20T06:37:01;8.10;;;3.45;;
73693;SDS011;61997;53.974;11.670;2023-03-20T06:39:27;6.55;;;3.60;;
73693;SDS011;61997;53.974;11.670;2023-03-20T06:41:52;5.95;;;3.17;;
73693;SDS011;61997;53.974;11.670;2023-03-20T06:44:18;4.95;;;3.40;;
73693;SDS011;61997;53.974;11.670;2023-03-20T06:46:43;6.50;;;3.25;;
73693;SDS011;61997;53.974;11.670;2023-03-20T06:49:09;4.95;;;3.17;;
73693;SDS011;61997;53.974;11.670;2023-03-20T06:51:34;7.30;;;3.58;;
73693;SDS011;61997;53.974;11.670;2023-03-20T06:54:01;6.97;;;4.00;;
73693;SDS011;61997;53.974;11.670;2023-03-20T06:56:26;6.55;;;3.33;;
73693;SDS011;61997;53.974;11.670;2023-03-20T06:58:51;5.95;;;3.33;;
73693;SDS011;61997;53.974;11.670;2023-03-20T07:01:17;5.53;;;3.40;;
73693;SDS011;61997;53.974;11.670;2023-03-20T07:03:44;5.82;;;3.55;;
73693;SDS011;61997;53.974;11.670;2023-03-20T07:06:10;6.68;;;3.38;;
73693;SDS011;61997;53.974;11.670;2023-03-20T07:08:36;5.50;;;3.25;;
73693;SDS011;61997;53.974;11.670;2023-03-20T07:11:01;5.75;;;2.95;;
73693;SDS011;61997;53.974;11.670;2023-03-20T07:13:28;5.00;;;3.22;;
73693;SDS011;61997;53.974;11.670;2023-03-20T07:15:54;6.28;;;3.05;;
73693;SDS011;61997;53.974;11.670;2023-03-20T07:18:21;6.35;;;3.13;;
73693;SDS011;61997;53.974;11.670;2023-03-20T07:20:46;5.30;;;3.20;;
73693;SDS011;61997;53.974;11.670;2023-03-20T07:23:12;6.90;;;2.97;;
73693;SDS011;61997;53.974;11.670;2023-03-20T07:25:37;4.78;;;2.63;;
73693;SDS011;61997;53.974;11.670;2023-03-20T07:28:03;5.50;;;2.70;;
73693;SDS011;61997;53.974;11.670;2023-03-20T07:30:29;3.78;;;2.63;;
73693;SDS011;61997;53.974;11.670;2023-03-20T07:32:56;4.47;;;2.70;;
73693;SDS011;61997;53.974;11.670;2023-03-20T07:35:21;5.30;;;2.63;;
73693;SDS011;61997;53.974;11.670;2023-03-20T07:37:47;4.80;;;2.65;;
73693;SDS011;61997;53.974;11.670;2023-03-20T07:40:12;5.28;;;2.92;;
73693;SDS011;61997;53.974;11.670;2023-03-20T07:42:38;5.28;;;2.67;;
73693;SDS011;61997;53.974;11.670;2023-03-20T07:45:03;4.35;;;2.63;;
73693;SDS011;61997;53.974;11.670;2023-03-20T07:47:29;4.43;;;2.17;;
73693;SDS011;61997;53.974;11.670;2023-03-20T07:49:55;4.78;;;2.40;;
73693;SDS011;61997;53.974;11.670;2023-03-20T07:52:20;4.65;;;2.58;;
73693;SDS011;61997;53.974;11.670;2023-03-20T07:54:46;4.50;;;2.70;;
73693;SDS011;61997;53.974;11.670;2023-03-20T07:57:11;4.57;;;2.65;;
73693;SDS011;61997;53.974;11.670;2023-03-20T07:59:36;3.47;;;2.40;;
73693;SDS011;61997;53.974;11.670;2023-03-20T08:02:02;4.53;;;2.17;;
73693;SDS011;61997;53.974;11.670;2023-03-20T08:04:27;4.72;;;2.20;;
73693;SDS011;61997;53.974;11.670;2023-03-20T08:06:53;4.35;;;2.22;;
73693;SDS011;61997;53.974;11.670;2023-03-20T08:09:18;4.00;;;2.05;;
73693;SDS011;61997;53.974;11.670;2023-03-20T08:11:44;3.78;;;2.65;;
73693;SDS011;61997;53.974;11.670;2023-03-20T08:14:10;3.70;;;2.20;;
73693;SDS011;61997;53.974;11.670;2023-03-20T08:16:35;4.40;;;2.08;;
73693;SDS011;61997;53.974;11.670;2023-03-20T08:19:01;4.68;;;2.50;;
73693;SDS011;61997;53.974;11.670;2023-03-20T08:21:29;3.20;;;2.00;;
73693;SDS011;61997;53.974;11.670;2023-03-20T08:23:56;3.92;;;2.38;;
73693;SDS011;61997;53.974;11.670;2023-03-20T08:26:22;4.35;;;2.25;;
73693;SDS011;61997;53.974;11.670;2023-03-20T08:28:47;4.40;;;2.20;;
73693;SDS011;61997;53.974;11.670;2023-03-20T08:31:13;4.60;;;2.15;;
73693;SDS011;61997;53.974;11.670;2023-03-20T08:33:39;2.33;;;1.60;;
73693;SDS011;61997;53.974;11.670;2023-03-20T08:36:05;3.17;;;1.70;;
73693;SDS011;61997;53.974;11.670;2023-03-20T08:38:30;3.58;;;1.95;;
73693;SDS011;61997;53.974;11.670;2023-03-20T08:40:56;3.88;;;1.70;;
73693;SDS011;61997;53.974;11.670;2023-03-20T08:43:22;4.15;;;2.03;;
73693;SDS011;61997;53.974;11.670;2023-03-20T08:45:47;3.25;;;2.00;;
73693;SDS011;61997;53.974;11.670;2023-03-20T08:48:13;5.10;;;2.10;;
73693;SDS011;61997;53.974;11.670;2023-03-20T08:50:38;2.72;;;2.13;;
73693;SDS011;61997;53.974;11.670;2023-03-20T08:53:04;3.10;;;1.90;;
73693;SDS011;61997;53.974;11.670;2023-03-20T08:55:30;3.42;;;1.83;;
73693;SDS011;61997;53.974;11.670;2023-03-20T08:57:55;4.38;;;2.15;;
73693;SDS011;61997;53.974;11.670;2023-03-20T09:00:21;2.60;;;1.42;;
73693;SDS011;61997;53.974;11.670;2023-03-20T09:02:47;3.88;;;1.60;;
73693;SDS011;61997;53.974;11.670;2023-03-20T09:05:13;3.08;;;1.88;;
73693;SDS011;61997;53.974;11.670;2023-03-20T09:07:38;3.35;;;1.98;;
73693;SDS011;61997;53.974;11.670;2023-03-20T09:10:04;4.00;;;1.90;;
73693;SDS011;61997;53.974;11.670;2023-03-20T09:12:30;3.58;;;1.95;;
73693;SDS011;61997;53.974;11.670;2023-03-20T09:14:58;3.38;;;1.60;;
73693;SDS011;61997;53.974;11.670;2023-03-20T09:17:24;2.97;;;1.77;;
73693;SDS011;61997;53.974;11.670;2023-03-20T09:19:50;2.55;;;1.45;;
73693;SDS011;61997;53.974;11.670;2023-03-20T09:22:15;3.40;;;1.55;;
73693;SDS011;61997;53.974;11.670;2023-03-20T09:24:44;2.40;;;1.38;;
73693;SDS011;61997;53.974;11.670;2023-03-20T09:27:09;3.05;;;1.80;;
73693;SDS011;61997;53.974;11.670;2023-03-20T09:29:38;3.15;;;1.50;;
73693;SDS011;61997;53.974;11.670;2023-03-20T09:32:03;3.33;;;1.60;;
73693;SDS011;61997;53.974;11.670;2023-03-20T09:34:29;3.00;;;1.85;;
73693;SDS011;61997;53.974;11.670;2023-03-20T09:36:54;2.55;;;1.63;;
73693;SDS011;61997;53.974;11.670;2023-03-20T09:39:20;3.67;;;1.70;;
73693;SDS011;61997;53.974;11.670;2023-03-20T09:41:45;2.40;;;1.42;;
73693;SDS011;61997;53.974;11.670;2023-03-20T09:44:55;3.72;;;1.45;;
73693;SDS011;61997;53.974;11.670;2023-03-20T09:50:03;2.40;;;1.40;;
73693;SDS011;61997;53.974;11.670;2023-03-20T09:52:58;3.50;;;1.50;;
73693;SDS011;61997;53.974;11.670;2023-03-20T09:55:33;2.63;;;1.20;;
73693;SDS011;61997;53.974;11.670;2023-03-20T09:58:22;2.97;;;1.42;;
73693;SDS011;61997;53.974;11.670;2023-03-20T10:00:47;2.25;;;1.15;;
73693;SDS011;61997;53.974;11.670;2023-03-20T10:03:15;2.42;;;1.30;;
73693;SDS011;61997;53.974;11.670;2023-03-20T10:05:50;2.05;;;1.30;;
73693;SDS011;61997;53.974;11.670;2023-03-20T10:08:21;1.60;;;1.10;;
73693;SDS011;61997;53.974;11.670;2023-03-20T10:11:05;2.88;;;1.15;;
73693;SDS011;61997;53.974;11.670;2023-03-20T10:21:42;2.35;;;1.08;;
73693;SDS011;61997;53.974;11.670;2023-03-20T10:24:24;2.97;;;1.15;;
73693;SDS011;61997;53.974;11.670;2023-03-20T10:26:53;2.95;;;1.40;;
73693;SDS011;61997;53.974;11.670;2023-03-20T10:32:14;2.20;;;1.10;;
73693;SDS011;61997;53.974;11.670;2023-03-20T10:37:35;1.67;;;1.20;;
73693;SDS011;61997;53.974;11.670;2023-03-20T10:42:44;2.10;;;1.17;;
73693;SDS011;61997;53.974;11.670;2023-03-20T10:47:40;2.15;;;1.30;;
73693;SDS011;61997;53.974;11.670;2023-03-20T10:50:14;2.60;;;1.00;;
73693;SDS011;61997;53.974;11.670;2023-03-20T10:52:41;1.40;;;0.85;;
73693;SDS011;61997;53.974;11.670;2023-03-20T10:55:11;2.47;;;1.20;;
73693;SDS011;61997;53.974;11.670;2023-03-20T10:57:41;1.88;;;0.93;;
73693;SDS011;61997;53.974;11.670;2023-03-20T11:00:16;3.00;;;1.20;;
73693;SDS011;61997;53.974;11.670;2023-03-20T11:02:44;2.25;;;1.13;;
73693;SDS011;61997;53.974;11.670;2023-03-20T11:05:24;2.65;;;1.25;;
73693;SDS011;61997;53.974;11.670;2023-03-20T11:08:04;2.10;;;1.00;;
73693;SDS011;61997;53.974;11.670;2023-03-20T11:10:33;2.70;;;1.10;;
73693;SDS011;61997;53.974;11.670;2023-03-20T11:16:38;2.13;;;1.17;;
73693;SDS011;61997;53.974;11.670;2023-03-20T11:19:03;3.72;;;1.27;;
73693;SDS011;61997;53.974;11.670;2023-03-20T11:21:32;3.25;;;1.10;;
73693;SDS011;61997;53.974;11.670;2023-03-20T11:24:00;2.25;;;1.02;;
73693;SDS011;61997;53.974;11.670;2023-03-20T11:26:35;2.28;;;1.10;;
73693;SDS011;61997;53.974;11.670;2023-03-20T11:29:04;2.83;;;0.95;;
73693;SDS011;61997;53.974;11.670;2023-03-20T11:31:33;2.78;;;1.00;;
73693;SDS011;61997;53.974;11.670;2023-03-20T11:36:29;1.40;;;0.90;;
73693;SDS011;61997;53.974;11.670;2023-03-20T11:38:59;2.88;;;1.08;;
73693;SDS011;61997;53.974;11.670;2023-03-20T11:41:34;2.45;;;1.05;;
73693;SDS011;61997;53.974;11.670;2023-03-20T11:47:10;2.08;;;0.98;;
73693;SDS011;61997;53.974;11.670;2023-03-20T11:49:44;1.83;;;1.10;;
73693;SDS011;61997;53.974;11.670;2023-03-20T11:52:19;2.83;;;1.42;;
73693;SDS011;61997;53.974;11.670;2023-03-20T11:54:50;2.75;;;1.55;;
73693;SDS011;61997;53.974;11.670;2023-03-20T12:00:41;2.20;;;1.23;;
73693;SDS011;61997;53.974;11.670;2023-03-20T12:02:48;2.30;;;1.30;;
73693;SDS011;61997;53.974;11.670;2023-03-20T12:07:52;2.63;;;1.40;;
73693;SDS011;61997;53.974;11.670;2023-03-20T12:10:22;2.53;;;1.25;;
73693;SDS011;61997;53.974;11.670;2023-03-20T12:12:53;4.03;;;1.60;;
73693;SDS011;61997;53.974;11.670;2023-03-20T12:15:25;2.53;;;1.40;;
73693;SDS011;61997;53.974;11.670;2023-03-20T12:18:03;2.55;;;1.45;;
73693;SDS011;61997;53.974;11.670;2023-03-20T12:26:05;2.33;;;1.40;;
73693;SDS011;61997;53.974;11.670;2023-03-20T12:28:59;3.25;;;1.52;;
73693;SDS011;61997;53.974;11.670;2023-03-20T12:31:35;2.95;;;1.38;;
73693;SDS011;61997;53.974;11.670;2023-03-20T12:34:14;3.75;;;1.70;;
73693;SDS011;61997;53.974;11.670;2023-03-20T12:36:46;4.32;;;2.20;;
73693;SDS011;61997;53.974;11.670;2023-03-20T12:39:17;7.43;;;3.92;;
73693;SDS011;61997;53.974;11.670;2023-03-20T12:49:49;10.48;;;5.95;;
73693;SDS011;61997;53.974;11.670;2023-03-20T13:01:44;17.70;;;10.02;;
73693;SDS011;61997;53.974;11.670;2023-03-20T13:07:18;19.92;;;10.50;;
73693;SDS011;61997;53.974;11.670;2023-03-20T13:12:31;20.48;;;11.38;;
73693;SDS011;61997;53.974;11.670;2023-03-20T13:15:03;17.65;;;11.48;;
73693;SDS011;61997;53.974;11.670;2023-03-20T13:20:24;19.40;;;12.52;;
73693;SDS011;61997;53.974;11.670;2023-03-20T13:28:18;24.52;;;13.25;;
73693;SDS011;61997;53.974;11.670;2023-03-20T13:30:55;22.10;;;13.25;;
73693;SDS011;61997;53.974;11.670;2023-03-20T13:36:10;23.08;;;12.82;;
73693;SDS011;61997;53.974;11.670;2023-03-20T13:38:49;20.60;;;12.55;;
73693;SDS011;61997;53.974;11.670;2023-03-20T13:41:19;21.77;;;12.95;;
73693;SDS011;61997;53.974;11.670;2023-03-20T13:43:58;20.25;;;13.13;;
73693;SDS011;61997;53.974;11.670;2023-03-20T13:46:38;22.08;;;14.25;;
73693;SDS011;61997;53.974;11.670;2023-03-20T13:49:12;21.27;;;12.50;;
73693;SDS011;61997;53.974;11.670;2023-03-20T13:51:46;24.30;;;13.07;;
73693;SDS011;61997;53.974;11.670;2023-03-20T13:54:36;20.73;;;13.18;;
73693;SDS011;61997;53.974;11.670;2023-03-20T14:05:50;22.50;;;12.70;;
73693;SDS011;61997;53.974;11.670;2023-03-20T14:10:55;23.13;;;12.77;;
73693;SDS011;61997;53.974;11.670;2023-03-20T14:13:29;19.40;;;12.27;;
73693;SDS011;61997;53.974;11.670;2023-03-20T14:15:56;23.05;;;13.52;;
73693;SDS011;61997;53.974;11.670;2023-03-20T14:18:28;20.63;;;12.68;;
73693;SDS011;61997;53.974;11.670;2023-03-20T14:20:59;20.13;;;11.82;;
73693;SDS011;61997;53.974;11.670;2023-03-20T14:26:28;21.95;;;11.85;;
73693;SDS011;61997;53.974;11.670;2023-03-20T14:31:33;18.80;;;13.00;;
73693;SDS011;61997;53.974;11.670;2023-03-20T14:45:05;18.42;;;12.07;;
73693;SDS011;61997;53.974;11.670;2023-03-20T14:47:47;20.20;;;12.10;;
73693;SDS011;61997;53.974;11.670;2023-03-20T14:52:59;18.48;;;12.13;;
73693;SDS011;61997;53.974;11.670;2023-03-20T15:04:05;18.33;;;12.48;;
73693;SDS011;61997;53.974;11.670;2023-03-20T15:06:34;17.95;;;12.45;;
73693;SDS011;61997;53.974;11.670;2023-03-20T15:09:08;17.42;;;12.10;;
73693;SDS011;61997;53.974;11.670;2023-03-20T15:11:35;17.05;;;11.90;;
73693;SDS011;61997;53.974;11.670;2023-03-20T15:14:02;18.77;;;11.95;;
73693;SDS011;61997;53.974;11.670;2023-03-20T15:16:31;16.52;;;11.52;;
73693;SDS011;61997;53.974;11.670;2023-03-20T15:18:58;17.48;;;11.75;;
73693;SDS011;61997;53.974;11.670;2023-03-20T15:24:02;17.83;;;12.30;;
73693;SDS011;61997;53.974;11.670;2023-03-20T15:26:30;18.38;;;12.95;;
73693;SDS011;61997;53.974;11.670;2023-03-20T15:29:01;16.33;;;12.30;;
73693;SDS011;61997;53.974;11.670;2023-03-20T15:31:38;20.80;;;13.05;;
73693;SDS011;61997;53.974;11.670;2023-03-20T15:34:14;21.10;;;13.25;;
73693;SDS011;61997;53.974;11.670;2023-03-20T15:36:43;20.00;;;13.52;;
73693;SDS011;61997;53.974;11.670;2023-03-20T15:39:13;14.50;;;12.48;;
73693;SDS011;61997;53.974;11.670;2023-03-20T15:41:44;17.90;;;12.93;;
73693;SDS011;61997;53.974;11.670;2023-03-20T15:44:24;19.70;;;13.13;;
73693;SDS011;61997;53.974;11.670;2023-03-20T15:47:01;17.65;;;13.13;;
73693;SDS011;61997;53.974;11.670;2023-03-20T15:51:58;17.52;;;13.15;;
73693;SDS011;61997;53.974;11.670;2023-03-20T15:54:25;14.93;;;12.35;;
73693;SDS011;61997;53.974;11.670;2023-03-20T15:56:51;15.23;;;12.27;;
73693;SDS011;61997;53.974;11.670;2023-03-20T15:59:21;18.35;;;12.93;;
73693;SDS011;61997;53.974;11.670;2023-03-20T16:01:50;17.55;;;12.55;;
73693;SDS011;61997;53.974;11.670;2023-03-20T16:04:17;17.50;;;13.40;;
73693;SDS011;61997;53.974;11.670;2023-03-20T16:06:56;18.45;;;13.40;;
73693;SDS011;61997;53.974;11.670;2023-03-20T16:09:22;14.10;;;11.93;;
73693;SDS011;61997;53.974;11.670;2023-03-20T16:11:53;17.40;;;12.73;;
73693;SDS011;61997;53.974;11.670;2023-03-20T16:14:24;14.38;;;11.98;;
73693;SDS011;61997;53.974;11.670;2023-03-20T16:16:52;15.43;;;12.50;;
73693;SDS011;61997;53.974;11.670;2023-03-20T16:19:19;17.63;;;12.80;;
73693;SDS011;61997;53.974;11.670;2023-03-20T16:21:47;17.60;;;13.15;;
73693;SDS011;61997;53.974;11.670;2023-03-20T16:24:20;15.80;;;12.20;;
73693;SDS011;61997;53.974;11.670;2023-03-20T16:26:50;16.17;;;12.00;;
73693;SDS011;61997;53.974;11.670;2023-03-20T16:29:16;15.65;;;12.75;;
73693;SDS011;61997;53.974;11.670;2023-03-20T16:31:56;17.10;;;12.60;;
73693;SDS011;61997;53.974;11.670;2023-03-20T16:34:25;13.93;;;12.35;;
73693;SDS011;61997;53.974;11.670;2023-03-20T16:36:57;14.90;;;11.75;;
73693;SDS011;61997;53.974;11.670;2023-03-20T16:39:26;13.98;;;11.52;;
73693;SDS011;61997;53.974;11.670;2023-03-20T16:41:56;15.43;;;11.98;;
73693;SDS011;61997;53.974;11.670;2023-03-20T16:44:27;13.63;;;11.50;;
73693;SDS011;61997;53.974;11.670;2023-03-20T16:52:20;13.13;;;11.63;;
73693;SDS011;61997;53.974;11.670;2023-03-20T16:54:50;13.05;;;11.40;;
73693;SDS011;61997;53.974;11.670;2023-03-20T16:57:16;14.48;;;11.27;;
73693;SDS011;61997;53.974;11.670;2023-03-20T16:59:42;14.70;;;11.55;;
73693;SDS011;61997;53.974;11.670;2023-03-20T17:02:16;16.33;;;11.35;;
73693;SDS011;61997;53.974;11.670;2023-03-20T17:04:47;12.65;;;11.25;;
73693;SDS011;61997;53.974;11.670;2023-03-20T17:07:14;13.35;;;10.95;;
73693;SDS011;61997;53.974;11.670;2023-03-20T17:12:22;13.98;;;10.63;;
73693;SDS011;61997;53.974;11.670;2023-03-20T17:14:48;12.45;;;10.10;;
73693;SDS011;61997;53.974;11.670;2023-03-20T17:17:18;11.88;;;10.27;;
73693;SDS011;61997;53.974;11.670;2023-03-20T17:19:45;13.38;;;11.65;;
73693;SDS011;61997;53.974;11.670;2023-03-20T17:22:14;13.00;;;10.38;;
73693;SDS011;61997;53.974;11.670;2023-03-20T17:24:41;11.68;;;10.45;;
73693;SDS011;61997;53.974;11.670;2023-03-20T17:27:08;13.25;;;10.15;;